Meno, Oklahoma
Current Conditions -  °F | °C
As of 2:48 AM on Saturday 22 Nov 2014 (Local Time) from KEND Reporting Station
Moderate Fog Moderate Fog  
Wind Chill: 45°   Ceiling: 100
Heat Index: 45°   Visibility: 0.25mi
Dew Point: 45°   Wind: 1mph
Humidity: 100%   Direction: 10°N
Pressure: 30.02"   Gusts: NA
Location:  36.39°N, 98.18°W
Report Text: KEND 220848Z AUTO 01001KT 1/4SM R35C/0900FT FG VV001 07/07 A3002 RMK AO2
Loading
Personal Weather Stations






























Interactive Weather Map New forecast layout! Learn more

10-Day Weather Forecast

Advertisements
Track Severe Weather on mobile